Scali Sanlorenzo — 9HA2400 — position and weather

sailwx.info

Track history (hours):
 
Tides and Currents Weather Stations Pressure Air Temp Water Temp Dewpoint Dewpoint Depression Visibility Wind Speed Wind Dir Waves Ship Positions

Scali Sanlorenzo

Last reported at 2017-Dec-11 13:40 UTC. Time now 2017-Dec-12 16:18 UTC.
Position N 54°36' W 000°28'.

Length 89 m; draft 5 m.

Type: Tanker. MMSI: 248532000.

Date/timePositionNaut miles runAvg speedWind from/ knotsBaromVisibWave heightAir tempDewpointWater temp
2017-Dec-11 13:40N 54°36' W 000°28'211.6
2017-Dec-11 13:30N 54°35' W 000°26'611.3
2017-Dec-11 13:00N 54°32' W 000°17'510.9
2017-Dec-11 12:30N 54°28' W 000°12'510.6
2017-Dec-11 12:00N 54°23' W 000°06'510.4
2017-Dec-11 11:30N 54°19' W 000°00'510.4
2017-Dec-11 11:00N 54°15' E 000°05'510.1
2017-Dec-11 10:30N 54°11' E 000°11'6111.0
2017-Dec-11 04:56N 53°21' E 001°10'511.6
2017-Dec-11 04:30N 53°17' E 001°14'611.2
2017-Dec-11 04:00N 53°12' E 001°18'510.7
2017-Dec-11 03:30N 53°07' E 001°23'510.3
2017-Dec-11 03:00N 53°03' E 001°28'5 9.7
2017-Dec-11 02:30N 52°59' E 001°32'5 9.3
2017-Dec-11 02:00N 52°55' E 001°38'5 9.1
2017-Dec-11 01:30N 52°52' E 001°43'5 9.1
2017-Dec-11 01:00N 52°50' E 001°49'5 9.2
2017-Dec-11 00:30N 52°47' E 001°56'3610.3
2017-Dec-10 21:03N 52°11' E 001°55'112.3
2017-Dec-10 21:00N 52°11' E 001°54'612.3
2017-Dec-10 20:30N 52°05' E 001°53'612.6
2017-Dec-10 20:00N 51°59' E 001°51'612.3
2017-Dec-10 19:30N 51°53' E 001°49'612.1
2017-Dec-10 19:01N 51°47' E 001°48'611.8
2017-Dec-10 18:30N 51°41' E 001°49'611.3
2017-Dec-10 18:00N 51°35' E 001°49'611.6
2017-Dec-10 17:30N 51°29' E 001°48'612.2
2017-Dec-10 17:00N 51°23' E 001°46'612.9
2017-Dec-10 16:30N 51°17' E 001°43'713.4
2017-Dec-10 16:01N 51°12' E 001°38'5 9.1
2017-Dec-10 15:31N 51°07' E 001°40'712.2
2017-Dec-10 14:58N 51°01' E 001°35'612.9
2017-Dec-10 14:30N 50°56' E 001°31'  
2017-Dec-04 10:30N 50°30' W 000°09'510.3
2017-Dec-04 10:00N 50°32' W 000°02'5 9.8
2017-Dec-04 09:30N 50°33' E 000°06'5 9.4
2017-Dec-04 09:00N 50°34' E 000°13'5 9.3
2017-Dec-04 08:30N 50°35' E 000°20'5 9.4
2017-Dec-04 08:00N 50°36' E 000°27'510.4
2017-Dec-04 07:30N 50°38' E 000°35'611.5
2017-Dec-04 07:00N 50°41' E 000°42'612.6
2017-Dec-04 06:30N 50°45' E 000°50'713.2
2017-Dec-04 06:00N 50°49' E 000°59'713.8
2017-Dec-04 05:30N 50°53' E 001°07'713.6
2017-Dec-04 05:00N 50°58' E 001°16'713.6
2017-Dec-04 04:30N 51°02' E 001°24'612.8
2017-Dec-04 04:00N 51°06' E 001°31'611.3
2017-Dec-04 03:30N 51°10' E 001°38'510.7
2017-Dec-04 03:00N 51°13' E 001°45'510.5
2017-Dec-04 02:31N 51°17' E 001°50'5 9.8
2017-Dec-04 02:00N 51°21' E 001°55'5 9.6
2017-Dec-04 01:30N 51°25' E 001°60'510.7
2017-Dec-04 01:00N 51°23' E 002°08'510.8
2017-Dec-04 00:30N 51°21' E 002°16'5 9.5
2017-Dec-03 23:59N 51°22' E 002°24'5 9.8
2017-Dec-03 23:29N 51°23' E 002°31'510.4
2017-Dec-03 23:00N 51°22' E 002°39'5 9.1
2017-Dec-03 22:30N 51°22' E 002°46'611.6
2017-Dec-03 22:00N 51°22' E 002°56'612.2
2017-Dec-03 21:31N 51°22' E 003°05'4 8.7
2017-Dec-03 21:00N 51°21' E 003°12'0 0.2
2017-Dec-03 20:28N 51°21' E 003°12'0 0.0
2017-Dec-03 19:58N 51°21' E 003°12'0 0.0
2017-Dec-03 19:28N 51°21' E 003°12'0 0.0
2017-Dec-03 18:58N 51°21' E 003°12'0 0.0
2017-Dec-03 18:28N 51°21' E 003°12'0 0.0
2017-Dec-03 17:58N 51°21' E 003°12'0 0.0
2017-Dec-03 17:28N 51°21' E 003°12'0 0.0
2017-Dec-03 16:58N 51°21' E 003°12'0 0.0
2017-Dec-03 16:28N 51°21' E 003°12'0 0.0
2017-Dec-03 15:58N 51°21' E 003°12'0 0.0
2017-Dec-03 15:28N 51°21' E 003°12'0 0.0
2017-Dec-03 14:58N 51°21' E 003°12'0 0.0
2017-Dec-03 14:28N 51°21' E 003°12'0 0.0
2017-Dec-03 13:58N 51°21' E 003°12'0 0.0
2017-Dec-03 13:28N 51°21' E 003°12'0 0.0
2017-Dec-03 12:58N 51°21' E 003°12'0 0.0
2017-Dec-03 12:28N 51°21' E 003°12'0 0.0
2017-Dec-03 11:58N 51°21' E 003°12'0 0.0
2017-Dec-03 11:28N 51°21' E 003°12'0 0.0
2017-Dec-03 10:58N 51°21' E 003°12'0 0.0
2017-Dec-03 10:28N 51°21' E 003°12'0 0.0
2017-Dec-03 09:58N 51°21' E 003°12'0 0.0
2017-Dec-03 09:28N 51°21' E 003°12'0 0.0
2017-Dec-03 08:58N 51°21' E 003°12'0 0.0
2017-Dec-03 08:28N 51°21' E 003°12'0 0.0
2017-Dec-03 07:58N 51°21' E 003°12'0 0.0
2017-Dec-03 07:28N 51°21' E 003°12'0 0.0
2017-Dec-03 06:58N 51°21' E 003°12'0 0.0
2017-Dec-03 06:25N 51°21' E 003°12'0 0.0
2017-Dec-03 05:58N 51°21' E 003°12'0 0.0
2017-Dec-03 05:28N 51°21' E 003°12'0 0.0
2017-Dec-03 04:58N 51°21' E 003°12'0 0.0
2017-Dec-03 04:28N 51°21' E 003°12'0 0.0
2017-Dec-03 03:58N 51°21' E 003°12'0 0.0
2017-Dec-03 03:28N 51°21' E 003°12'0 0.0
2017-Dec-03 02:58N 51°21' E 003°12'0 0.0
2017-Dec-03 02:28N 51°21' E 003°12'0 0.0
2017-Dec-03 01:58N 51°21' E 003°12'0 0.0
2017-Dec-03 01:28N 51°21' E 003°12'0 0.0
2017-Dec-03 00:58N 51°21' E 003°12'0 0.0
2017-Dec-03 00:28N 51°21' E 003°12'0 0.0
2017-Dec-02 23:58N 51°21' E 003°12'0 0.0
2017-Dec-02 23:28N 51°21' E 003°12'0 0.0
2017-Dec-02 22:58N 51°21' E 003°12'0 0.0
2017-Dec-02 22:28N 51°21' E 003°12'0 0.0
2017-Dec-02 21:58N 51°21' E 003°12'0 0.0
2017-Dec-02 21:28N 51°21' E 003°12'0 0.0
2017-Dec-02 20:58N 51°21' E 003°12'0 0.0
2017-Dec-02 20:28N 51°21' E 003°12'0 0.0
2017-Dec-02 19:58N 51°21' E 003°12'0 0.0
2017-Dec-02 19:28N 51°21' E 003°12'0 0.0
2017-Dec-02 18:58N 51°21' E 003°12'0 0.0
2017-Dec-02 18:28N 51°21' E 003°12'0 0.0
2017-Dec-02 17:58N 51°21' E 003°12'0 0.0
2017-Dec-02 17:28N 51°21' E 003°12'0 0.0
2017-Dec-02 16:58N 51°21' E 003°12'0 0.0
2017-Dec-02 16:28N 51°21' E 003°12'0 0.0
2017-Dec-02 15:55N 51°21' E 003°12'0 0.0
2017-Dec-02 15:28N 51°21' E 003°12'0 0.0
2017-Dec-02 14:58N 51°21' E 003°12'0 0.0
2017-Dec-02 14:28N 51°21' E 003°12'0 0.0
2017-Dec-02 13:58N 51°21' E 003°12'0 0.0
2017-Dec-02 13:28N 51°21' E 003°12'0 0.0
2017-Dec-02 12:58N 51°21' E 003°12'0 0.0
2017-Dec-02 12:28N 51°21' E 003°12'0 0.0
2017-Dec-02 11:58N 51°21' E 003°12'0 0.0
2017-Dec-02 11:28N 51°21' E 003°12'0 0.0
2017-Dec-02 10:58N 51°21' E 003°12'0 0.0
2017-Dec-02 10:28N 51°21' E 003°12'0 0.0
2017-Dec-02 09:58N 51°21' E 003°12'0 0.0
2017-Dec-02 09:28N 51°21' E 003°12'0 0.0
2017-Dec-02 08:58N 51°21' E 003°12'0 0.0
2017-Dec-02 08:28N 51°21' E 003°12'0 0.0
2017-Dec-02 07:58N 51°21' E 003°12'0 0.0
2017-Dec-02 07:28N 51°21' E 003°12'0 0.0
2017-Dec-02 06:58N 51°21' E 003°12'0 0.0
2017-Dec-02 06:28N 51°21' E 003°12'0 0.0
2017-Dec-02 05:58N 51°21' E 003°12'0 0.0
2017-Dec-02 05:28N 51°21' E 003°12'0 0.0
2017-Dec-02 04:58N 51°21' E 003°12'0 0.0
2017-Dec-02 04:28N 51°21' E 003°12'0 0.0
2017-Dec-02 03:58N 51°21' E 003°12'0 0.0
2017-Dec-02 03:28N 51°21' E 003°12'0 0.0
2017-Dec-02 02:58N 51°21' E 003°12'0 0.0
2017-Dec-02 02:28N 51°21' E 003°12'0 0.0
2017-Dec-02 01:58N 51°21' E 003°12'0 0.0
2017-Dec-02 01:28N 51°21' E 003°12'0 0.0
2017-Dec-02 00:58N 51°21' E 003°12'0 0.0
2017-Dec-02 00:28N 51°21' E 003°12'0 0.0
2017-Dec-01 23:58N 51°21' E 003°12'0 0.0
2017-Dec-01 23:28N 51°21' E 003°12'0 0.0
2017-Dec-01 22:58N 51°21' E 003°12'0 0.0
2017-Dec-01 22:28N 51°21' E 003°12'0 0.0
2017-Dec-01 21:58N 51°21' E 003°12'0 0.0
2017-Dec-01 21:28N 51°21' E 003°12'0 0.0
2017-Dec-01 20:58N 51°21' E 003°12'0 0.0
2017-Dec-01 20:28N 51°21' E 003°12'0 0.0
2017-Dec-01 19:58N 51°21' E 003°12'0 0.0
2017-Dec-01 19:28N 51°21' E 003°12'0 0.0
2017-Dec-01 18:58N 51°21' E 003°12'0 0.0
2017-Dec-01 18:28N 51°21' E 003°12'0 0.0
2017-Dec-01 17:58N 51°21' E 003°12'0 0.0
2017-Dec-01 17:28N 51°21' E 003°12'0 0.0
2017-Dec-01 16:58N 51°21' E 003°12'0 0.0
2017-Dec-01 16:28N 51°21' E 003°12'0 0.0
2017-Dec-01 15:58N 51°21' E 003°12'0 0.0
2017-Dec-01 15:28N 51°21' E 003°12'0 0.0
2017-Dec-01 14:58N 51°21' E 003°12'0 0.0
2017-Dec-01 14:28N 51°21' E 003°12'0 0.0
2017-Dec-01 13:58N 51°21' E 003°12'  
Track history (hours):
 
Tides and Currents Weather Stations Pressure Air Temp Water Temp Dewpoint Dewpoint Depression Visibility Wind Speed Wind Dir Waves Ship Positions

Scali Sanlorenzo

Last reported at 2017-Dec-11 13:40 UTC. Time now 2017-Dec-12 16:18 UTC.
Position N 54°36' W 000°28'.

Length 89 m; draft 5 m.

Type: Tanker. MMSI: 248532000.

Date/timePositionNaut miles runAvg speedWind from/ knotsBaromVisibWave heightAir tempDewpointWater temp
2017-Dec-11 13:40N 54°36' W 000°28'211.6
2017-Dec-11 13:30N 54°35' W 000°26'611.3
2017-Dec-11 13:00N 54°32' W 000°17'510.9
2017-Dec-11 12:30N 54°28' W 000°12'510.6
2017-Dec-11 12:00N 54°23' W 000°06'510.4
2017-Dec-11 11:30N 54°19' W 000°00'510.4
2017-Dec-11 11:00N 54°15' E 000°05'510.1
2017-Dec-11 10:30N 54°11' E 000°11'6111.0
2017-Dec-11 04:56N 53°21' E 001°10'511.6
2017-Dec-11 04:30N 53°17' E 001°14'611.2
2017-Dec-11 04:00N 53°12' E 001°18'510.7
2017-Dec-11 03:30N 53°07' E 001°23'510.3
2017-Dec-11 03:00N 53°03' E 001°28'5 9.7
2017-Dec-11 02:30N 52°59' E 001°32'5 9.3
2017-Dec-11 02:00N 52°55' E 001°38'5 9.1
2017-Dec-11 01:30N 52°52' E 001°43'5 9.1
2017-Dec-11 01:00N 52°50' E 001°49'5 9.2
2017-Dec-11 00:30N 52°47' E 001°56'3610.3
2017-Dec-10 21:03N 52°11' E 001°55'112.3
2017-Dec-10 21:00N 52°11' E 001°54'612.3
2017-Dec-10 20:30N 52°05' E 001°53'612.6
2017-Dec-10 20:00N 51°59' E 001°51'612.3
2017-Dec-10 19:30N 51°53' E 001°49'612.1
2017-Dec-10 19:01N 51°47' E 001°48'611.8
2017-Dec-10 18:30N 51°41' E 001°49'611.3
2017-Dec-10 18:00N 51°35' E 001°49'611.6
2017-Dec-10 17:30N 51°29' E 001°48'612.2
2017-Dec-10 17:00N 51°23' E 001°46'612.9
2017-Dec-10 16:30N 51°17' E 001°43'713.4
2017-Dec-10 16:01N 51°12' E 001°38'5 9.1
2017-Dec-10 15:31N 51°07' E 001°40'712.2
2017-Dec-10 14:58N 51°01' E 001°35'612.9
2017-Dec-10 14:30N 50°56' E 001°31'  
2017-Dec-04 10:30N 50°30' W 000°09'510.3
2017-Dec-04 10:00N 50°32' W 000°02'5 9.8
2017-Dec-04 09:30N 50°33' E 000°06'5 9.4
2017-Dec-04 09:00N 50°34' E 000°13'5 9.3
2017-Dec-04 08:30N 50°35' E 000°20'5 9.4
2017-Dec-04 08:00N 50°36' E 000°27'510.4
2017-Dec-04 07:30N 50°38' E 000°35'611.5
2017-Dec-04 07:00N 50°41' E 000°42'612.6
2017-Dec-04 06:30N 50°45' E 000°50'713.2
2017-Dec-04 06:00N 50°49' E 000°59'713.8
2017-Dec-04 05:30N 50°53' E 001°07'713.6
2017-Dec-04 05:00N 50°58' E 001°16'713.6
2017-Dec-04 04:30N 51°02' E 001°24'612.8
2017-Dec-04 04:00N 51°06' E 001°31'611.3
2017-Dec-04 03:30N 51°10' E 001°38'510.7
2017-Dec-04 03:00N 51°13' E 001°45'510.5
2017-Dec-04 02:31N 51°17' E 001°50'5 9.8
2017-Dec-04 02:00N 51°21' E 001°55'5 9.6
2017-Dec-04 01:30N 51°25' E 001°60'510.7
2017-Dec-04 01:00N 51°23' E 002°08'510.8
2017-Dec-04 00:30N 51°21' E 002°16'5 9.5
2017-Dec-03 23:59N 51°22' E 002°24'5 9.8
2017-Dec-03 23:29N 51°23' E 002°31'510.4
2017-Dec-03 23:00N 51°22' E 002°39'5 9.1
2017-Dec-03 22:30N 51°22' E 002°46'611.6
2017-Dec-03 22:00N 51°22' E 002°56'612.2
2017-Dec-03 21:31N 51°22' E 003°05'4 8.7
2017-Dec-03 21:00N 51°21' E 003°12'0 0.2
2017-Dec-03 20:28N 51°21' E 003°12'0 0.0
2017-Dec-03 19:58N 51°21' E 003°12'0 0.0
2017-Dec-03 19:28N 51°21' E 003°12'0 0.0
2017-Dec-03 18:58N 51°21' E 003°12'0 0.0
2017-Dec-03 18:28N 51°21' E 003°12'0 0.0
2017-Dec-03 17:58N 51°21' E 003°12'0 0.0
2017-Dec-03 17:28N 51°21' E 003°12'0 0.0
2017-Dec-03 16:58N 51°21' E 003°12'0 0.0
2017-Dec-03 16:28N 51°21' E 003°12'0 0.0
2017-Dec-03 15:58N 51°21' E 003°12'0 0.0
2017-Dec-03 15:28N 51°21' E 003°12'0 0.0
2017-Dec-03 14:58N 51°21' E 003°12'0 0.0
2017-Dec-03 14:28N 51°21' E 003°12'0 0.0
2017-Dec-03 13:58N 51°21' E 003°12'0 0.0
2017-Dec-03 13:28N 51°21' E 003°12'0 0.0
2017-Dec-03 12:58N 51°21' E 003°12'0 0.0
2017-Dec-03 12:28N 51°21' E 003°12'0 0.0
2017-Dec-03 11:58N 51°21' E 003°12'0 0.0
2017-Dec-03 11:28N 51°21' E 003°12'0 0.0
2017-Dec-03 10:58N 51°21' E 003°12'0 0.0
2017-Dec-03 10:28N 51°21' E 003°12'0 0.0
2017-Dec-03 09:58N 51°21' E 003°12'0 0.0
2017-Dec-03 09:28N 51°21' E 003°12'0 0.0
2017-Dec-03 08:58N 51°21' E 003°12'0 0.0
2017-Dec-03 08:28N 51°21' E 003°12'0 0.0
2017-Dec-03 07:58N 51°21' E 003°12'0 0.0
2017-Dec-03 07:28N 51°21' E 003°12'0 0.0
2017-Dec-03 06:58N 51°21' E 003°12'0 0.0
2017-Dec-03 06:25N 51°21' E 003°12'0 0.0
2017-Dec-03 05:58N 51°21' E 003°12'0 0.0
2017-Dec-03 05:28N 51°21' E 003°12'0 0.0
2017-Dec-03 04:58N 51°21' E 003°12'0 0.0
2017-Dec-03 04:28N 51°21' E 003°12'0 0.0
2017-Dec-03 03:58N 51°21' E 003°12'0 0.0
2017-Dec-03 03:28N 51°21' E 003°12'0 0.0
2017-Dec-03 02:58N 51°21' E 003°12'0 0.0
2017-Dec-03 02:28N 51°21' E 003°12'0 0.0
2017-Dec-03 01:58N 51°21' E 003°12'0 0.0
2017-Dec-03 01:28N 51°21' E 003°12'0 0.0
2017-Dec-03 00:58N 51°21' E 003°12'0 0.0
2017-Dec-03 00:28N 51°21' E 003°12'0 0.0
2017-Dec-02 23:58N 51°21' E 003°12'0 0.0
2017-Dec-02 23:28N 51°21' E 003°12'0 0.0
2017-Dec-02 22:58N 51°21' E 003°12'0 0.0
2017-Dec-02 22:28N 51°21' E 003°12'0 0.0
2017-Dec-02 21:58N 51°21' E 003°12'0 0.0
2017-Dec-02 21:28N 51°21' E 003°12'0 0.0
2017-Dec-02 20:58N 51°21' E 003°12'0 0.0
2017-Dec-02 20:28N 51°21' E 003°12'0 0.0
2017-Dec-02 19:58N 51°21' E 003°12'0 0.0
2017-Dec-02 19:28N 51°21' E 003°12'0 0.0
2017-Dec-02 18:58N 51°21' E 003°12'0 0.0
2017-Dec-02 18:28N 51°21' E 003°12'0 0.0
2017-Dec-02 17:58N 51°21' E 003°12'0 0.0
2017-Dec-02 17:28N 51°21' E 003°12'0 0.0
2017-Dec-02 16:58N 51°21' E 003°12'0 0.0
2017-Dec-02 16:28N 51°21' E 003°12'0 0.0
2017-Dec-02 15:55N 51°21' E 003°12'0 0.0
2017-Dec-02 15:28N 51°21' E 003°12'0 0.0
2017-Dec-02 14:58N 51°21' E 003°12'0 0.0
2017-Dec-02 14:28N 51°21' E 003°12'0 0.0
2017-Dec-02 13:58N 51°21' E 003°12'0 0.0
2017-Dec-02 13:28N 51°21' E 003°12'0 0.0
2017-Dec-02 12:58N 51°21' E 003°12'0 0.0
2017-Dec-02 12:28N 51°21' E 003°12'0 0.0
2017-Dec-02 11:58N 51°21' E 003°12'0 0.0
2017-Dec-02 11:28N 51°21' E 003°12'0 0.0
2017-Dec-02 10:58N 51°21' E 003°12'0 0.0
2017-Dec-02 10:28N 51°21' E 003°12'0 0.0
2017-Dec-02 09:58N 51°21' E 003°12'0 0.0
2017-Dec-02 09:28N 51°21' E 003°12'0 0.0
2017-Dec-02 08:58N 51°21' E 003°12'0 0.0
2017-Dec-02 08:28N 51°21' E 003°12'0 0.0
2017-Dec-02 07:58N 51°21' E 003°12'0 0.0
2017-Dec-02 07:28N 51°21' E 003°12'0 0.0
2017-Dec-02 06:58N 51°21' E 003°12'0 0.0
2017-Dec-02 06:28N 51°21' E 003°12'0 0.0
2017-Dec-02 05:58N 51°21' E 003°12'0 0.0
2017-Dec-02 05:28N 51°21' E 003°12'0 0.0
2017-Dec-02 04:58N 51°21' E 003°12'0 0.0
2017-Dec-02 04:28N 51°21' E 003°12'0 0.0
2017-Dec-02 03:58N 51°21' E 003°12'0 0.0
2017-Dec-02 03:28N 51°21' E 003°12'0 0.0
2017-Dec-02 02:58N 51°21' E 003°12'0 0.0
2017-Dec-02 02:28N 51°21' E 003°12'0 0.0
2017-Dec-02 01:58N 51°21' E 003°12'0 0.0
2017-Dec-02 01:28N 51°21' E 003°12'0 0.0
2017-Dec-02 00:58N 51°21' E 003°12'0 0.0
2017-Dec-02 00:28N 51°21' E 003°12'0 0.0
2017-Dec-01 23:58N 51°21' E 003°12'0 0.0
2017-Dec-01 23:28N 51°21' E 003°12'0 0.0
2017-Dec-01 22:58N 51°21' E 003°12'0 0.0
2017-Dec-01 22:28N 51°21' E 003°12'0 0.0
2017-Dec-01 21:58N 51°21' E 003°12'0 0.0
2017-Dec-01 21:28N 51°21' E 003°12'0 0.0
2017-Dec-01 20:58N 51°21' E 003°12'0 0.0
2017-Dec-01 20:28N 51°21' E 003°12'0 0.0
2017-Dec-01 19:58N 51°21' E 003°12'0 0.0
2017-Dec-01 19:28N 51°21' E 003°12'0 0.0
2017-Dec-01 18:58N 51°21' E 003°12'0 0.0
2017-Dec-01 18:28N 51°21' E 003°12'0 0.0
2017-Dec-01 17:58N 51°21' E 003°12'0 0.0
2017-Dec-01 17:28N 51°21' E 003°12'0 0.0
2017-Dec-01 16:58N 51°21' E 003°12'0 0.0
2017-Dec-01 16:28N 51°21' E 003°12'0 0.0
2017-Dec-01 15:58N 51°21' E 003°12'0 0.0
2017-Dec-01 15:28N 51°21' E 003°12'0 0.0
2017-Dec-01 14:58N 51°21' E 003°12'0 0.0
2017-Dec-01 14:28N 51°21' E 003°12'0 0.0
2017-Dec-01 13:58N 51°21' E 003°12'  

Dump ship's entire track history